Time;durP1;ratioP1;P1;durP2;ratioP2;P2;SDS_P1;SDS_P2;PMS_P1;PMS_P2;Temp;Humidity;BMP_temperature;BMP_pressure;BME280_temperature;BME280_humidity;BME280_pressure;Samples;Min_cycle;Max_cycle;Signal;HPM_P1;HPM_P2
2023/10/08 00:01:25;;;;;;;;;;;9.00;99.90;;;;;;5025967;28;20041;-75
2023/10/08 00:03:58;;;;;;;0.00;0.00;;;9.00;99.90;;;;;;5023732;28;20214;-75
2023/10/08 00:06:24;;;;;;;0.45;0.45;;;9.00;99.90;;;;;;5022919;28;20039;-75
2023/10/08 00:08:50;;;;;;;0.00;0.00;;;9.00;99.90;;;;;;5026147;28;20057;-75
2023/10/08 00:11:19;;;;;;;0.00;0.00;;;9.00;99.90;;;;;;5024464;28;20528;-76
2023/10/08 00:13:48;;;;;;;0.00;0.00;;;9.00;99.90;;;;;;5026387;28;20085;-76
2023/10/08 00:16:33;;;;;;;0.10;0.10;;;9.00;99.90;;;;;;5027823;28;20107;-76
2023/10/08 00:19:10;;;;;;;0.10;0.10;;;8.70;99.90;;;;;;5027889;28;20057;-76
2023/10/08 00:21:38;;;;;;;0.10;0.10;;;9.10;99.90;;;;;;5025130;28;20049;-75
2023/10/08 00:24:09;;;;;;;0.00;0.00;;;9.10;99.90;;;;;;5028668;28;20220;-76
2023/10/08 00:26:39;;;;;;;0.40;0.40;;;9.10;99.90;;;;;;5031648;28;20030;-76
2023/10/08 00:29:21;;;;;;;0.10;0.10;;;9.10;99.90;;;;;;5030359;28;20126;-75
2023/10/08 00:31:56;;;;;;;0.05;0.05;;;9.10;99.90;;;;;;5025250;28;20374;-76
2023/10/08 00:34:32;;;;;;;0.00;0.00;;;9.10;99.90;;;;;;5025552;28;20025;-76
2023/10/08 00:37:08;;;;;;;0.10;0.10;;;8.10;99.90;;;;;;5018428;28;20055;-76
2023/10/08 00:39:39;;;;;;;0.10;0.10;;;9.20;99.90;;;;;;5053265;28;20060;-75
2023/10/08 00:42:14;;;;;;;0.10;0.10;;;9.10;99.90;;;;;;5067111;28;20205;-76
2023/10/08 00:44:51;;;;;;;0.00;0.00;;;9.10;99.90;;;;;;5075030;28;20080;-75
2023/10/08 00:47:26;;;;;;;0.10;0.10;;;9.10;99.90;;;;;;5070053;28;20017;-75
2023/10/08 00:50:05;;;;;;;0.20;0.20;;;9.00;99.90;;;;;;5078279;28;20083;-75
2023/10/08 00:52:45;;;;;;;0.00;0.00;;;9.10;99.90;;;;;;5065227;28;20091;-77
2023/10/08 00:55:21;;;;;;;0.10;0.10;;;9.00;99.90;;;;;;5085536;28;20118;-75
2023/10/08 00:57:49;;;;;;;0.10;0.10;;;9.00;99.90;;;;;;5069149;28;20044;-75
2023/10/08 01:00:21;;;;;;;0.03;0.03;;;9.00;99.90;;;;;;5060105;28;20343;-76
2023/10/08 01:03:00;;;;;;;0.30;0.30;;;9.00;99.90;;;;;;5079631;28;20028;-76
2023/10/08 01:05:42;;;;;;;0.00;0.00;;;9.00;99.90;;;;;;5071816;28;20467;-76
2023/10/08 01:11:17;;;;;;;0.00;0.00;;;9.00;99.90;;;;;;5018897;28;20034;-76
2023/10/08 01:13:45;;;;;;;0.00;0.00;;;9.00;99.90;;;;;;5016148;28;20209;-76
2023/10/08 01:16:12;;;;;;;0.00;0.00;;;9.00;99.90;;;;;;5013293;28;20045;-75
2023/10/08 01:18:42;;;;;;;0.10;0.10;;;9.00;99.90;;;;;;4998235;28;20052;-76
2023/10/08 01:21:18;;;;;;;0.10;0.10;;;9.00;99.90;;;;;;5014881;28;20061;-75
2023/10/08 01:23:46;;;;;;;0.00;0.00;;;8.90;99.90;;;;;;4999387;28;20026;-76
2023/10/08 01:26:23;;;;;;;0.00;0.00;;;8.90;99.90;;;;;;5013242;28;20037;-76
2023/10/08 01:28:49;;;;;;;0.00;0.00;;;8.90;99.90;;;;;;5014519;28;20092;-75
2023/10/08 01:31:15;;;;;;;0.00;0.00;;;8.90;99.90;;;;;;5017198;28;20064;-75
2023/10/08 01:33:49;;;;;;;0.03;0.03;;;8.80;99.90;;;;;;5032009;28;20061;-75
2023/10/08 01:36:15;;;;;;;0.08;0.08;;;8.80;99.90;;;;;;5010856;28;20046;-76
2023/10/08 01:38:41;;;;;;;1.38;1.30;;;8.70;99.90;;;;;;5023642;28;20118;-76
2023/10/08 01:41:23;;;;;;;0.00;0.00;;;8.50;99.90;;;;;;5024122;28;20327;-76
2023/10/08 01:43:54;;;;;;;0.03;0.03;;;8.50;99.90;;;;;;5020242;28;20342;-75
2023/10/08 01:46:22;;;;;;;0.03;0.03;;;7.90;99.90;;;;;;5024572;28;20559;-76
2023/10/08 01:48:50;;;;;;;0.00;0.00;;;8.50;99.90;;;;;;5057252;28;20382;-76
2023/10/08 01:51:28;;;;;;;0.10;0.10;;;9.40;99.90;;;;;;5066853;28;20638;-73
2023/10/08 01:53:58;;;;;;;0.00;0.00;;;8.40;99.90;;;;;;5068722;28;20146;-75
2023/10/08 01:56:24;;;;;;;0.03;0.03;;;;;;;;;;5085017;28;20052;-75
2023/10/08 01:58:50;;;;;;;0.10;0.10;;;8.40;99.90;;;;;;5084377;28;20024;-76
2023/10/08 02:01:22;;;;;;;0.05;0.05;;;8.50;99.90;;;;;;5085654;28;20039;-75
2023/10/08 02:03:48;;;;;;;0.00;0.00;;;8.30;99.90;;;;;;5084513;28;20418;-76
2023/10/08 02:06:14;;;;;;;0.00;0.00;;;;;;;;;;5066663;28;20024;-75
2023/10/08 02:08:41;;;;;;;0.00;0.00;;;8.40;99.90;;;;;;5082965;28;20035;-76
2023/10/08 02:11:08;;;;;;;0.00;0.00;;;;;;;;;;5084778;28;20028;-75
2023/10/08 02:13:34;;;;;;;0.50;0.50;;;;;;;;;;5082106;28;20661;-75
2023/10/08 02:16:01;;;;;;;0.10;0.10;;;8.40;99.90;;;;;;5082379;28;20046;-75
2023/10/08 02:18:29;;;;;;;0.00;0.00;;;;;;;;;;5067141;28;20027;-76
2023/10/08 02:20:56;;;;;;;0.00;0.00;;;8.40;99.90;;;;;;5087501;28;20093;-75
2023/10/08 02:23:22;;;;;;;0.00;0.00;;;;;;;;;;5094635;28;20005;-75
2023/10/08 02:25:49;;;;;;;0.05;0.05;;;;;;;;;;5095500;28;20050;-75
2023/10/08 02:28:20;;;;;;;0.00;0.00;;;8.40;99.90;;;;;;5094412;28;20475;-75
2023/10/08 02:30:46;;;;;;;0.10;0.10;;;;;;;;;;5094088;28;20028;-75
2023/10/08 02:33:15;;;;;;;0.10;0.10;;;8.40;99.90;;;;;;5087272;28;20324;-75
2023/10/08 02:35:45;;;;;;;0.10;0.10;;;8.30;99.90;;;;;;5091691;28;20028;-75
2023/10/08 02:38:16;;;;;;;0.00;0.00;;;8.00;99.90;;;;;;5077085;28;20040;-75
2023/10/08 02:40:47;;;;;;;0.10;0.10;;;8.40;99.90;;;;;;5087401;28;20566;-75
2023/10/08 02:43:17;;;;;;;0.15;0.15;;;8.30;99.90;;;;;;5085976;28;20478;-75
2023/10/08 02:45:55;;;;;;;0.10;0.10;;;8.30;99.90;;;;;;5089593;28;20028;-75
2023/10/08 02:48:21;;;;;;;0.08;0.08;;;8.30;99.90;;;;;;5087398;28;20526;-75
2023/10/08 02:50:47;;;;;;;0.10;0.10;;;8.30;99.90;;;;;;5088654;28;20024;-75
2023/10/08 02:53:17;;;;;;;0.00;0.00;;;8.20;99.90;;;;;;5097206;28;20031;-75
2023/10/08 02:55:46;;;;;;;0.10;0.10;;;8.20;99.90;;;;;;5092987;28;20028;-75
2023/10/08 02:58:18;;;;;;;0.00;0.00;;;8.10;99.90;;;;;;5095652;28;20047;-75
2023/10/08 03:00:49;;;;;;;0.00;0.00;;;8.20;99.90;;;;;;5095481;28;20059;-76
2023/10/08 03:03:18;;;;;;;0.05;0.05;;;8.20;99.90;;;;;;5096118;28;20615;-74
2023/10/08 03:05:50;;;;;;;0.00;0.00;;;8.20;99.90;;;;;;5094880;28;20032;-75
2023/10/08 03:08:23;;;;;;;0.08;0.08;;;8.10;99.90;;;;;;5094340;28;20035;-75
2023/10/08 03:11:26;;;;;;;0.00;0.00;;;8.20;99.90;;;;;;5095793;28;20417;-75
2023/10/08 03:13:46;;;;;;;0.10;0.10;;;8.40;99.90;;;;;;5089151;28;20036;-75
2023/10/08 03:16:13;;;;;;;0.00;0.00;;;8.20;99.90;;;;;;5099267;28;20340;-75
2023/10/08 03:18:50;;;;;;;0.00;0.00;;;8.20;99.90;;;;;;5099884;28;20065;-74
2023/10/08 03:21:43;;;;;;;0.10;0.10;;;8.30;99.90;;;;;;5099502;28;20029;-75
2023/10/08 03:24:29;;;;;;;0.00;0.00;;;8.30;99.90;;;;;;5098927;28;20165;-76
2023/10/08 03:27:43;;;;;;;0.10;0.10;;;8.30;99.90;;;;;;5098978;28;20035;-75
2023/10/08 03:29:47;;;;;;;0.00;0.00;;;8.30;99.90;;;;;;5089241;28;20680;-75
2023/10/08 03:32:16;;;;;;;3.53;1.58;;;8.40;99.90;;;;;;5100451;28;20055;-75
2023/10/08 03:34:54;;;;;;;0.45;0.45;;;8.40;99.90;;;;;;5096104;28;20028;-75
2023/10/08 03:37:29;;;;;;;0.15;0.15;;;8.50;99.90;;;;;;5082933;28;20040;-75
2023/10/08 03:42:49;;;;;;;0.10;0.10;;;8.40;99.90;;;;;;5077234;28;20035;-74
2023/10/08 03:45:22;;;;;;;0.08;0.08;;;8.50;99.90;;;;;;5092275;28;20514;-75
2023/10/08 03:48:15;;;;;;;0.00;0.00;;;8.50;99.90;;;;;;5069988;28;20070;-75
2023/10/08 03:50:43;;;;;;;0.00;0.00;;;8.50;99.90;;;;;;5091813;28;20100;-75
2023/10/08 03:53:12;;;;;;;0.00;0.00;;;8.40;99.90;;;;;;5089541;28;20024;-75
2023/10/08 03:55:43;;;;;;;0.00;0.00;;;9.10;99.90;;;;;;5091313;28;20115;-75
2023/10/08 03:58:27;;;;;;;0.00;0.00;;;8.50;99.90;;;;;;5088165;28;20227;-75
2023/10/08 04:01:18;;;;;;;;;;;8.50;99.90;;;;;;5092463;28;20308;-75
2023/10/08 04:03:57;;;;;;;6.95;6.35;;;8.60;99.90;;;;;;5073432;28;20580;-75
2023/10/08 04:14:16;;;;;;;0.00;0.00;;;8.60;99.90;;;;;;5091632;28;20024;-75
2023/10/08 04:16:43;;;;;;;3.63;3.35;;;8.70;99.90;;;;;;5089840;28;20126;-75
2023/10/08 04:19:12;;;;;;;2.08;1.98;;;8.70;99.90;;;;;;5088675;28;20031;-75
2023/10/08 04:21:41;;;;;;;0.10;0.10;;;8.80;99.90;;;;;;5087556;28;20514;-75
2023/10/08 04:24:08;;;;;;;0.22;0.22;;;8.80;99.90;;;;;;5089193;28;20069;-75
2023/10/08 04:26:38;;;;;;;0.00;0.00;;;8.70;99.90;;;;;;5093958;28;20036;-75
2023/10/08 04:29:06;;;;;;;0.10;0.10;;;8.80;99.90;;;;;;5097438;28;20342;-75
2023/10/08 04:31:43;;;;;;;0.00;0.00;;;8.70;99.90;;;;;;5095620;28;20044;-75
2023/10/08 04:34:17;;;;;;;0.08;0.08;;;;;;;;;;5081299;28;20027;-75
2023/10/08 04:36:45;;;;;;;0.10;0.10;;;8.70;99.90;;;;;;5097991;28;20083;-75
2023/10/08 04:39:21;;;;;;;0.00;0.00;;;8.80;99.90;;;;;;5097850;28;20025;-75
2023/10/08 04:41:52;;;;;;;0.77;0.77;;;8.70;99.90;;;;;;5093359;28;20098;-75
2023/10/08 04:44:21;;;;;;;0.00;0.00;;;8.60;99.90;;;;;;5081527;28;20134;-75
2023/10/08 04:46:51;;;;;;;0.80;0.80;;;8.40;99.90;;;;;;5092961;28;20513;-76
2023/10/08 04:49:29;;;;;;;0.10;0.10;;;8.70;99.90;;;;;;5098437;28;20162;-75
2023/10/08 04:51:57;;;;;;;0.10;0.10;;;8.70;99.90;;;;;;5098776;28;20031;-74
2023/10/08 04:54:32;;;;;;;0.00;0.00;;;8.70;99.90;;;;;;5093699;28;20038;-75
2023/10/08 04:57:01;;;;;;;1.95;1.85;;;8.70;99.90;;;;;;5098937;28;20063;-76
2023/10/08 04:59:32;;;;;;;0.00;0.00;;;8.70;99.90;;;;;;5103766;28;20020;-75
2023/10/08 05:13:15;;;;;;;0.05;0.05;;;9.00;99.90;;;;;;5013264;28;20038;-75
2023/10/08 05:16:02;;;;;;;0.00;0.00;;;9.00;99.90;;;;;;5010002;28;20472;-75
2023/10/08 05:18:54;;;;;;;2.05;1.95;;;9.00;99.90;;;;;;5009445;28;20580;-75
2023/10/08 05:21:28;;;;;;;0.00;0.00;;;9.00;99.90;;;;;;5008629;28;20026;-74
2023/10/08 05:24:08;;;;;;;0.10;0.10;;;9.10;99.90;;;;;;5008422;28;20064;-75
2023/10/08 05:26:59;;;;;;;0.80;0.80;;;9.10;99.90;;;;;;5011365;28;20030;-75
2023/10/08 05:29:51;;;;;;;0.10;0.10;;;9.10;99.90;;;;;;5015603;28;20072;-75
2023/10/08 05:32:37;;;;;;;0.10;0.10;;;9.30;99.90;;;;;;5012066;28;20050;-75
2023/10/08 05:38:12;;;;;;;0.10;0.10;;;9.40;99.90;;;;;;5013351;28;20041;-75
2023/10/08 05:41:04;;;;;;;0.00;0.00;;;9.40;99.90;;;;;;4993864;28;20076;-74
2023/10/08 05:54:47;;;;;;;0.10;0.10;;;9.60;99.90;;;;;;5019699;28;20048;-75
2023/10/08 06:05:26;;;;;;;0.20;0.20;;;9.70;99.90;;;;;;4979192;28;20031;-75
2023/10/08 06:08:10;;;;;;;3.50;3.40;;;9.60;99.90;;;;;;4972364;28;20034;-75
2023/10/08 06:13:43;;;;;;;0.00;0.00;;;9.50;99.90;;;;;;4978542;28;20066;-75
2023/10/08 06:16:30;;;;;;;0.00;0.00;;;9.50;99.90;;;;;;4984638;28;20039;-75
2023/10/08 06:18:59;;;;;;;0.20;0.20;;;9.40;99.90;;;;;;4977368;28;20043;-75
2023/10/08 06:21:26;;;;;;;0.00;0.00;;;9.50;99.90;;;;;;4978562;28;20170;-75
2023/10/08 06:24:08;;;;;;;0.15;0.15;;;10.20;99.90;;;;;;4983034;28;20038;-75
2023/10/08 06:26:42;;;;;;;0.10;0.10;;;9.40;99.90;;;;;;4948949;28;20039;-75
2023/10/08 06:29:27;;;;;;;0.10;0.10;;;9.40;99.90;;;;;;5024246;28;20037;-75
2023/10/08 06:32:01;;;;;;;0.10;0.10;;;9.50;99.90;;;;;;5034713;28;20339;-75
2023/10/08 06:34:28;;;;;;;0.10;0.10;;;9.40;99.90;;;;;;5024357;28;20030;-75
2023/10/08 06:37:04;;;;;;;0.10;0.10;;;9.70;99.90;;;;;;5031725;28;20045;-75
2023/10/08 06:39:47;;;;;;;0.10;0.10;;;10.00;99.90;;;;;;5036215;28;20076;-75
2023/10/08 06:42:15;;;;;;;0.10;0.10;;;10.20;99.90;;;;;;5046473;28;20096;-77
2023/10/08 06:44:46;;;;;;;2.05;1.90;;;10.30;99.90;;;;;;5075698;28;20162;-76
2023/10/08 06:47:15;;;;;;;0.10;0.10;;;10.50;99.90;;;;;;5070646;28;20082;-76
2023/10/08 06:49:46;;;;;;;0.10;0.10;;;10.90;99.90;;;;;;5069173;28;20029;-75
2023/10/08 06:52:13;;;;;;;0.10;0.10;;;10.90;99.90;;;;;;5055713;28;20042;-75
2023/10/08 06:54:40;;;;;;;0.22;0.22;;;11.00;99.90;;;;;;5064768;28;20021;-75
2023/10/08 06:57:13;;;;;;;0.10;0.10;;;11.20;99.90;;;;;;5069321;28;20302;-76
2023/10/08 06:59:42;;;;;;;0.15;0.15;;;;;;;;;;5047855;28;20059;-75
2023/10/08 07:02:09;;;;;;;0.10;0.10;;;11.40;99.90;;;;;;5046531;28;20024;-75
2023/10/08 07:04:37;;;;;;;0.20;0.20;;;11.70;99.90;;;;;;5044089;28;20479;-75
2023/10/08 07:07:03;;;;;;;0.10;0.10;;;11.70;99.90;;;;;;5031884;28;20025;-75
2023/10/08 07:09:29;;;;;;;4.60;4.22;;;11.70;99.90;;;;;;5060874;28;20028;-75
2023/10/08 07:11:56;;;;;;;0.20;0.20;;;11.80;99.90;;;;;;5068876;28;20020;-75
2023/10/08 07:14:26;;;;;;;0.60;0.60;;;11.90;99.90;;;;;;5068060;28;20020;-76
2023/10/08 07:16:58;;;;;;;0.20;0.20;;;12.00;99.90;;;;;;5060462;28;20486;-75
2023/10/08 07:19:32;;;;;;;0.32;0.32;;;12.10;99.90;;;;;;5048753;28;20033;-75
2023/10/08 07:22:45;;;;;;;0.10;0.10;;;12.20;99.90;;;;;;5066934;28;20407;-76
2023/10/08 07:24:50;;;;;;;0.77;0.77;;;12.70;99.90;;;;;;5064820;28;20032;-75
2023/10/08 07:27:21;;;;;;;0.45;0.45;;;12.40;99.90;;;;;;5059877;28;20048;-76
2023/10/08 07:29:48;;;;;;;0.30;0.30;;;12.50;99.90;;;;;;5060153;28;20024;-75
2023/10/08 07:32:18;;;;;;;0.10;0.10;;;12.60;99.90;;;;;;5051553;28;20040;-75
2023/10/08 07:34:47;;;;;;;0.63;0.63;;;12.70;99.90;;;;;;5077305;28;20016;-76
2023/10/08 07:37:15;;;;;;;0.10;0.10;;;12.90;99.90;;;;;;5062028;28;20229;-81
2023/10/08 07:39:54;;;;;;;0.60;0.60;;;13.10;99.90;;;;;;5079685;28;20020;-77
2023/10/08 07:42:21;;;;;;;0.20;0.20;;;13.20;99.90;;;;;;5078260;28;20023;-80
2023/10/08 07:44:47;;;;;;;3.15;2.95;;;13.20;99.90;;;;;;5079043;28;20031;-80
2023/10/08 07:47:14;;;;;;;0.20;0.20;;;13.30;99.90;;;;;;5077655;28;20028;-76
2023/10/08 07:49:44;;;;;;;0.22;0.22;;;13.30;99.90;;;;;;5059084;28;20024;-75
2023/10/08 07:52:15;;;;;;;0.65;0.65;;;13.20;99.90;;;;;;5060751;28;20045;-76
2023/10/08 07:54:41;;;;;;;0.20;0.20;;;13.30;99.90;;;;;;5079383;28;20016;-81
2023/10/08 07:57:11;;;;;;;0.63;0.63;;;13.40;99.90;;;;;;5060809;28;20103;-82
2023/10/08 07:59:41;;;;;;;0.10;0.10;;;13.50;99.90;;;;;;5079015;28;20056;-78
2023/10/08 08:02:09;;;;;;;0.10;0.10;;;13.30;99.90;;;;;;5078158;28;20024;-76
2023/10/08 08:04:46;;;;;;;0.20;0.20;;;13.70;99.90;;;;;;5078100;28;20031;-76
2023/10/08 08:07:15;;;;;;;2.53;2.42;;;13.70;99.90;;;;;;5077727;28;20327;-76
2023/10/08 08:09:59;;;;;;;1.63;1.55;;;13.70;99.90;;;;;;5077871;28;20316;-76
2023/10/08 08:12:28;;;;;;;0.35;0.35;;;13.50;99.90;;;;;;5059369;28;20024;-80
2023/10/08 08:14:54;;;;;;;0.15;0.15;;;13.80;99.90;;;;;;5078527;28;20101;-80
2023/10/08 08:17:22;;;;;;;0.15;0.15;;;13.90;99.90;;;;;;5059072;28;20510;-76
2023/10/08 08:19:50;;;;;;;0.20;0.20;;;11.10;99.90;;;;;;5078055;28;20220;-81
2023/10/08 08:22:21;;;;;;;0.10;0.10;;;13.90;99.90;;;;;;5059460;28;20012;-76
2023/10/08 08:24:55;;;;;;;0.38;0.38;;;13.90;99.90;;;;;;5059166;28;20178;-82
2023/10/08 08:27:24;;;;;;;0.10;0.10;;;14.10;99.90;;;;;;5077365;28;20023;-76
2023/10/08 08:29:55;;;;;;;0.10;0.10;;;14.40;99.90;;;;;;5076931;28;20024;-75
2023/10/08 08:32:23;;;;;;;1.33;1.27;;;14.90;99.90;;;;;;5076923;28;20309;-75
2023/10/08 08:34:52;;;;;;;0.10;0.10;;;14.70;99.90;;;;;;5076515;28;20020;-76
2023/10/08 08:37:18;;;;;;;0.10;0.10;;;14.90;99.90;;;;;;5077559;28;20032;-83
2023/10/08 08:39:44;;;;;;;3.08;2.83;;;15.10;99.90;;;;;;5077240;28;20020;-76
2023/10/08 08:42:10;;;;;;;0.17;0.17;;;15.20;99.90;;;;;;5077597;28;20297;-83
2023/10/08 08:44:45;;;;;;;0.10;0.10;;;15.50;99.90;;;;;;5077478;28;20017;-76
2023/10/08 08:47:17;;;;;;;0.80;0.80;;;15.80;99.90;;;;;;5077453;28;20309;-75
2023/10/08 08:49:47;;;;;;;0.20;0.20;;;15.80;99.90;;;;;;5077473;28;20031;-75
2023/10/08 08:52:14;;;;;;;0.57;0.57;;;15.90;99.90;;;;;;5077379;28;20036;-76
2023/10/08 08:54:42;;;;;;;0.25;0.25;;;16.00;99.90;;;;;;5076662;28;20208;-76
2023/10/08 08:57:13;;;;;;;1.13;1.13;;;16.20;99.90;;;;;;5055998;28;20263;-75
2023/10/08 08:59:53;;;;;;;0.55;0.55;;;16.30;99.90;;;;;;5073831;28;20312;-76
2023/10/08 09:02:19;;;;;;;1.35;1.35;;;17.00;99.90;;;;;;5077346;28;20170;-74
2023/10/08 09:04:45;;;;;;;0.60;0.60;;;16.40;99.90;;;;;;5076976;28;20036;-75
2023/10/08 09:07:12;;;;;;;0.65;0.65;;;16.30;99.90;;;;;;5058664;28;20121;-81
2023/10/08 09:09:49;;;;;;;0.35;0.35;;;16.40;99.90;;;;;;5076896;28;20025;-75
2023/10/08 09:12:16;;;;;;;1.10;1.08;;;16.40;99.90;;;;;;5060330;28;20108;-75
2023/10/08 09:14:46;;;;;;;1.98;1.85;;;16.50;99.90;;;;;;5080525;28;20073;-74
2023/10/08 09:17:15;;;;;;;1.42;1.33;;;16.40;99.90;;;;;;5080448;28;20367;-74
2023/10/08 09:19:40;;;;;;;0.10;0.10;;;16.50;99.90;;;;;;5062061;28;20027;-76
2023/10/08 09:22:11;;;;;;;0.25;0.25;;;16.50;99.90;;;;;;5062500;28;20028;-78
2023/10/08 09:24:42;;;;;;;0.93;0.93;;;16.60;99.90;;;;;;5063116;28;20024;-77
2023/10/08 09:27:19;;;;;;;0.10;0.10;;;16.60;99.90;;;;;;5063052;28;20517;-75
2023/10/08 09:29:47;;;;;;;0.10;0.10;;;16.70;99.90;;;;;;5080107;28;20024;-75
2023/10/08 09:32:13;;;;;;;1.02;0.98;;;16.90;99.90;;;;;;5080066;28;20032;-78
2023/10/08 09:34:40;;;;;;;1.58;1.50;;;18.70;99.90;;;;;;5080971;28;20048;-78
2023/10/08 09:37:07;;;;;;;0.30;0.30;;;17.10;99.90;;;;;;5079738;28;20060;-75
2023/10/08 09:39:36;;;;;;;2.08;1.88;;;17.10;99.90;;;;;;5081388;28;20301;-74
2023/10/08 09:42:11;;;;;;;0.32;0.32;;;17.20;99.90;;;;;;5081831;28;20027;-80
2023/10/08 09:44:37;;;;;;;0.10;0.10;;;17.20;99.90;;;;;;5082327;28;20047;-75
2023/10/08 09:47:09;;;;;;;1.35;1.25;;;17.00;99.90;;;;;;5081655;28;20055;-77
2023/10/08 09:49:44;;;;;;;0.10;0.10;;;17.50;99.90;;;;;;5080208;28;20084;-80
2023/10/08 09:52:12;;;;;;;0.13;0.13;;;17.60;99.90;;;;;;5081005;28;20031;-76
2023/10/08 09:54:44;;;;;;;0.15;0.15;;;17.80;99.90;;;;;;5080936;28;20023;-80
2023/10/08 09:57:11;;;;;;;0.10;0.10;;;17.80;99.90;;;;;;5079904;28;20478;-79
2023/10/08 09:59:41;;;;;;;0.10;0.10;;;17.80;99.90;;;;;;5062776;28;20526;-79
2023/10/08 10:02:09;;;;;;;1.00;0.98;;;17.50;99.90;;;;;;5079344;28;20270;-74
2023/10/08 10:04:35;;;;;;;0.90;0.90;;;17.70;99.90;;;;;;5079576;28;20059;-75
2023/10/08 10:07:16;;;;;;;0.40;0.40;;;17.90;99.90;;;;;;5079997;28;20655;-75
2023/10/08 10:09:49;;;;;;;0.20;0.20;;;18.00;99.90;;;;;;5079995;28;20016;-80
2023/10/08 10:12:25;;;;;;;1.30;1.30;;;18.20;99.90;;;;;;5079648;28;20104;-74
2023/10/08 10:14:55;;;;;;;5.22;4.93;;;18.20;99.90;;;;;;5079646;28;20043;-75
2023/10/08 10:17:25;;;;;;;0.68;0.68;;;18.00;99.90;;;;;;5079447;28;20040;-75
2023/10/08 10:20:00;;;;;;;0.68;0.63;;;18.40;99.90;;;;;;5079404;28;20024;-74
2023/10/08 10:22:34;;;;;;;0.63;0.63;;;18.50;99.90;;;;;;5079572;28;20027;-76
2023/10/08 10:25:14;;;;;;;0.13;0.13;;;18.70;99.90;;;;;;5060216;28;20190;-75
2023/10/08 10:27:43;;;;;;;0.20;0.20;;;18.70;99.90;;;;;;5079146;28;20036;-75
2023/10/08 10:30:09;;;;;;;1.48;1.38;;;18.90;99.90;;;;;;5079136;28;20579;-77
2023/10/08 10:32:36;;;;;;;0.93;0.93;;;19.10;99.90;;;;;;5079369;28;20055;-83
2023/10/08 10:35:05;;;;;;;0.82;0.82;;;19.30;99.90;;;;;;5079829;28;20263;-84
2023/10/08 10:37:41;;;;;;;1.80;1.70;;;19.40;99.90;;;;;;5078845;28;20055;-78
2023/10/08 10:40:12;;;;;;;2.60;2.35;;;19.50;99.90;;;;;;5079617;28;20538;-77
2023/10/08 10:42:47;;;;;;;1.00;0.95;;;19.60;99.90;;;;;;5079870;28;20047;-76
2023/10/08 10:48:11;;;;;;;1.15;1.15;;;23.10;99.90;;;;;;5079513;28;20034;-74
2023/10/08 10:51:23;;;;;;;0.30;0.30;;;20.10;99.40;;;;;;5081843;28;20334;-77
2023/10/08 10:54:07;;;;;;;0.13;0.13;;;20.40;98.90;;;;;;5070102;28;20333;-75
2023/10/08 10:56:39;;;;;;;1.40;1.23;;;20.60;98.40;;;;;;5080838;28;20486;-80
2023/10/08 10:59:27;;;;;;;0.82;0.82;;;20.80;98.60;;;;;;5060122;28;20032;-80
2023/10/08 11:04:47;;;;;;;0.63;0.63;;;20.90;98.50;;;;;;5078836;28;20278;-75
2023/10/08 11:07:16;;;;;;;3.10;3.00;;;21.10;99.10;;;;;;5079031;28;20254;-87
2023/10/08 11:09:44;;;;;;;1.00;0.68;;;21.30;97.70;;;;;;5079250;28;20070;-81
2023/10/08 11:12:13;;;;;;;5.47;3.40;;;21.40;97.70;;;;;;5078742;28;20224;-75
2023/10/08 11:14:46;;;;;;;0.52;0.52;;;21.50;98.20;;;;;;5078400;28;20107;-80
2023/10/08 11:17:24;;;;;;;1.15;1.05;;;21.60;98.20;;;;;;5078325;28;20117;-74
2023/10/08 11:19:50;;;;;;;6.65;1.60;;;21.80;97.20;;;;;;5059968;28;20474;-77
2023/10/08 11:22:18;;;;;;;0.10;0.10;;;21.90;96.00;;;;;;5078996;28;20144;-86
2023/10/08 11:24:53;;;;;;;0.10;0.10;;;22.20;96.70;;;;;;5078938;28;20023;-74
2023/10/08 11:27:29;;;;;;;0.52;0.52;;;22.20;97.20;;;;;;5079186;28;20016;-75
2023/10/08 11:29:57;;;;;;;0.10;0.10;;;22.30;95.60;;;;;;5078971;28;20031;-75
2023/10/08 11:32:27;;;;;;;0.75;0.73;;;22.50;95.00;;;;;;5078001;28;20073;-77
2023/10/08 11:34:59;;;;;;;1.27;1.20;;;22.60;95.10;;;;;;5079005;28;20035;-78
2023/10/08 11:37:35;;;;;;;0.63;0.63;;;22.60;94.80;;;;;;5059680;28;20131;-76
2023/10/08 11:40:28;;;;;;;0.10;0.10;;;22.80;94.30;;;;;;5078360;28;20020;-76
2023/10/08 11:42:51;;;;;;;0.38;0.38;;;23.10;94.10;;;;;;5078713;28;20029;-77
2023/10/08 11:45:37;;;;;;;2.92;2.83;;;23.30;93.40;;;;;;5078490;28;20103;-77
2023/10/08 11:48:11;;;;;;;0.55;0.55;;;23.40;92.30;;;;;;5060431;28;20252;-77
2023/10/08 11:50:38;;;;;;;0.30;0.30;;;23.70;92.00;;;;;;5078479;28;20103;-75
2023/10/08 11:53:08;;;;;;;1.67;1.58;;;23.70;90.80;;;;;;5079144;28;20236;-82
2023/10/08 11:55:36;;;;;;;1.75;1.10;;;23.60;90.90;;;;;;5062667;28;20020;-75
2023/10/08 11:58:09;;;;;;;0.15;0.15;;;23.90;90.90;;;;;;5080470;28;20028;-77
2023/10/08 12:00:44;;;;;;;2.65;1.48;;;23.60;90.90;;;;;;5084260;28;20338;-75
2023/10/08 12:03:17;;;;;;;0.20;0.20;;;24.00;90.30;;;;;;5082344;28;20016;-81
2023/10/08 12:05:47;;;;;;;0.57;0.57;;;24.00;90.00;;;;;;5079283;28;20576;-78
2023/10/08 12:08:20;;;;;;;5.10;1.30;;;24.20;89.80;;;;;;5078976;28;20113;-76
2023/10/08 12:10:48;;;;;;;0.93;0.73;;;24.30;89.20;;;;;;5078499;28;20046;-82
2023/10/08 12:13:16;;;;;;;0.10;0.10;;;24.50;88.80;;;;;;5078053;28;20129;-79
2023/10/08 12:15:44;;;;;;;2.85;2.63;;;24.80;88.30;;;;;;5078497;28;20096;-77
2023/10/08 12:18:25;;;;;;;0.40;0.30;;;22.90;84.70;;;;;;5077267;28;20032;-76
2023/10/08 12:20:53;;;;;;;0.38;0.38;;;25.30;85.30;;;;;;5077564;28;20315;-77
2023/10/08 12:23:25;;;;;;;0.98;0.90;;;25.50;84.30;;;;;;5077310;28;20058;-76
2023/10/08 12:25:55;;;;;;;0.70;0.70;;;25.60;84.00;;;;;;5077633;28;20024;-81
2023/10/08 12:28:23;;;;;;;0.85;0.68;;;24.80;81.80;;;;;;5077782;28;20620;-75
2023/10/08 12:30:52;;;;;;;0.70;0.70;;;25.10;83.10;;;;;;5077734;28;20032;-76
2023/10/08 12:33:23;;;;;;;0.20;0.20;;;25.60;83.60;;;;;;5078115;28;20031;-81
2023/10/08 12:35:53;;;;;;;0.30;0.30;;;25.90;81.50;;;;;;5077703;28;20319;-79
2023/10/08 12:38:22;;;;;;;0.17;0.17;;;26.00;82.30;;;;;;5077774;28;20336;-76
2023/10/08 12:40:54;;;;;;;0.30;0.30;;;26.10;80.10;;;;;;5077017;28;20348;-75
2023/10/08 12:43:20;;;;;;;0.10;0.10;;;26.10;80.90;;;;;;5077900;28;20143;-76
2023/10/08 12:45:53;;;;;;;7.13;2.85;;;28.10;81.90;;;;;;5077523;28;20020;-76
2023/10/08 12:48:24;;;;;;;0.13;0.13;;;26.90;80.30;;;;;;5080122;28;20047;-77
2023/10/08 12:50:53;;;;;;;0.32;0.32;;;26.30;79.10;;;;;;5081570;28;20035;-76
2023/10/08 12:53:23;;;;;;;0.00;0.00;;;26.60;80.00;;;;;;5063364;28;20012;-78
2023/10/08 12:55:53;;;;;;;1.13;0.75;;;27.00;78.60;;;;;;5081054;28;20074;-85
2023/10/08 12:58:23;;;;;;;1.10;0.55;;;27.10;78.20;;;;;;5081017;28;20408;-78
2023/10/08 13:00:56;;;;;;;0.45;0.45;;;27.20;77.20;;;;;;5063722;28;20059;-76
2023/10/08 13:03:30;;;;;;;0.50;0.50;;;27.50;76.80;;;;;;5062517;28;20448;-77
2023/10/08 13:06:03;;;;;;;0.55;0.52;;;27.40;74.20;;;;;;5063786;28;20529;-76
2023/10/08 13:08:36;;;;;;;0.25;0.25;;;27.40;75.90;;;;;;5082503;28;20032;-77
2023/10/08 13:11:01;;;;;;;0.80;0.28;;;27.30;75.80;;;;;;5081575;28;20020;-82
2023/10/08 13:13:28;;;;;;;3.72;1.95;;;27.10;75.50;;;;;;5081239;28;20034;-76
2023/10/08 13:15:56;;;;;;;0.57;0.52;;;26.80;75.20;;;;;;5081143;28;20471;-76
2023/10/08 13:18:28;;;;;;;0.25;0.25;;;26.70;75.70;;;;;;5081150;28;20584;-77
2023/10/08 13:20:54;;;;;;;1.65;1.55;;;26.60;74.80;;;;;;5081295;28;20023;-82
2023/10/08 13:23:23;;;;;;;0.52;0.52;;;26.40;75.70;;;;;;5080549;28;20020;-77
2023/10/08 13:25:54;;;;;;;2.05;1.33;;;26.30;75.90;;;;;;5082302;28;20024;-77
2023/10/08 13:28:23;;;;;;;0.80;0.77;;;26.20;77.10;;;;;;5085458;28;20020;-76
2023/10/08 13:30:52;;;;;;;0.22;0.22;;;26.20;76.50;;;;;;5084007;28;20316;-79
2023/10/08 13:33:28;;;;;;;0.55;0.45;;;26.00;75.30;;;;;;5066397;28;20024;-77
2023/10/08 13:35:55;;;;;;;1.27;1.17;;;26.00;75.80;;;;;;5080802;28;20020;-77
2023/10/08 13:38:21;;;;;;;0.20;0.20;;;;;;;;;;5081331;28;20024;-80
2023/10/08 13:41:06;;;;;;;0.10;0.10;;;;;;;;;;5080669;28;20039;-77
2023/10/08 13:43:35;;;;;;;1.95;1.10;;;25.60;75.80;;;;;;5080717;28;20288;-81
2023/10/08 13:46:13;;;;;;;0.20;0.20;;;25.80;76.50;;;;;;5080343;28;20197;-76
2023/10/08 13:48:39;;;;;;;0.20;0.20;;;26.20;76.70;;;;;;5081597;28;20100;-79
2023/10/08 13:51:13;;;;;;;0.10;0.10;;;26.40;75.80;;;;;;5080905;28;20054;-78
2023/10/08 13:53:51;;;;;;;0.20;0.20;;;26.30;75.60;;;;;;5080612;28;20189;-77
2023/10/08 13:56:20;;;;;;;0.47;0.47;;;26.60;75.40;;;;;;5080472;28;20369;-83
2023/10/08 13:58:49;;;;;;;1.45;0.90;;;27.50;74.90;;;;;;5079370;28;20285;-78
2023/10/08 14:01:21;;;;;;;1.38;0.90;;;27.20;74.00;;;;;;5080100;28;20023;-77
2023/10/08 14:03:48;;;;;;;2.25;1.75;;;27.10;73.40;;;;;;5080254;28;20313;-78
2023/10/08 14:06:16;;;;;;;3.67;1.10;;;27.70;72.40;;;;;;5080310;28;20024;-80
2023/10/08 14:08:54;;;;;;;1.38;0.68;;;27.10;72.80;;;;;;5079824;28;20024;-81
2023/10/08 14:11:29;;;;;;;0.22;0.22;;;28.00;73.50;;;;;;5079979;28;20022;-79
2023/10/08 14:14:01;;;;;;;0.75;0.57;;;26.20;71.60;;;;;;5080232;28;20028;-75
2023/10/08 14:16:32;;;;;;;0.28;0.22;;;28.60;71.50;;;;;;5079822;28;20307;-77